createdAt,value
2022-08-26T00:00:52.005Z,23.73
2022-08-26T00:03:21.233Z,24.87
2022-08-26T00:05:51.504Z,24.90
2022-08-26T00:08:21.405Z,21.00
2022-08-26T00:10:51.572Z,25.83
2022-08-26T00:13:20.211Z,28.80
2022-08-26T00:15:48.295Z,28.07
2022-08-26T00:18:22.226Z,24.70
2022-08-26T00:20:51.407Z,25.37
2022-08-26T00:23:19.521Z,26.63
2022-08-26T00:25:48.389Z,26.93
2022-08-26T00:28:19.045Z,26.37
2022-08-26T00:30:51.710Z,29.63
2022-08-26T00:33:21.106Z,21.17
2022-08-26T00:35:49.488Z,24.83
2022-08-26T00:38:23.018Z,31.37
2022-08-26T00:40:53.974Z,26.07
2022-08-26T00:43:25.450Z,25.13
2022-08-26T00:46:02.382Z,23.00
2022-08-26T00:48:34.378Z,28.20
2022-08-26T00:51:07.812Z,29.83
2022-08-26T00:53:41.452Z,25.83
2022-08-26T00:56:15.393Z,27.73
2022-08-26T00:58:45.614Z,24.30
2022-08-26T01:01:14.040Z,27.57
2022-08-26T01:03:45.281Z,24.00
2022-08-26T01:06:14.442Z,23.90
2022-08-26T01:08:42.952Z,23.73
2022-08-26T01:11:11.868Z,34.10
2022-08-26T01:13:40.432Z,24.37
2022-08-26T01:16:14.654Z,34.10
2022-08-26T01:18:45.227Z,30.83
2022-08-26T01:21:20.455Z,32.80
2022-08-26T01:23:57.478Z,29.97
2022-08-26T01:26:30.053Z,31.40
2022-08-26T01:29:00.992Z,29.43
2022-08-26T01:31:32.794Z,28.63
2022-08-26T01:34:07.612Z,28.37
2022-08-26T01:36:39.076Z,29.40
2022-08-26T01:39:09.303Z,27.93
2022-08-26T01:41:40.747Z,32.10
2022-08-26T01:44:17.980Z,27.07
2022-08-26T01:46:48.192Z,25.70
2022-08-26T01:49:20.406Z,28.17
2022-08-26T01:51:50.328Z,25.30
2022-08-26T01:54:22.945Z,21.50
2022-08-26T01:56:52.297Z,24.80
2022-08-26T01:59:23.777Z,25.37
2022-08-26T02:01:52.733Z,24.53
2022-08-26T02:04:25.231Z,32.23
2022-08-26T02:06:54.686Z,29.60
2022-08-26T02:09:25.687Z,23.53
2022-08-26T02:11:54.992Z,30.23
2022-08-26T02:14:27.871Z,28.67
2022-08-26T02:16:57.299Z,28.33
2022-08-26T02:19:31.037Z,26.17
2022-08-26T02:22:02.287Z,26.73
2022-08-26T02:24:49.619Z,31.07
2022-08-26T02:27:19.918Z,18.87
2022-08-26T02:29:52.412Z,28.80
2022-08-26T02:32:20.927Z,28.60
2022-08-26T02:34:48.956Z,22.20
2022-08-26T02:37:17.716Z,21.83
2022-08-26T02:39:48.081Z,24.60
2022-08-26T02:42:16.126Z,30.20
2022-08-26T02:44:44.110Z,26.37
2022-08-26T02:47:15.605Z,24.70
2022-08-26T02:49:44.685Z,26.60
2022-08-26T02:52:16.125Z,23.27
2022-08-26T02:54:44.457Z,26.13
2022-08-26T02:57:15.239Z,23.10
2022-08-26T02:59:43.785Z,32.23
2022-08-26T03:02:12.894Z,31.97
2022-08-26T03:04:57.351Z,32.87
2022-08-26T03:07:26.934Z,31.37
2022-08-26T03:09:54.933Z,39.53
2022-08-26T03:12:24.306Z,24.70
2022-08-26T03:14:54.533Z,25.57
2022-08-26T03:17:22.578Z,26.43
2022-08-26T03:19:54.669Z,30.13
2022-08-26T03:22:26.273Z,31.07
2022-08-26T03:24:55.832Z,25.30
2022-08-26T03:27:25.100Z,24.07
2022-08-26T03:30:11.833Z,32.73
2022-08-26T03:32:41.560Z,23.83
2022-08-26T03:35:10.971Z,32.97
2022-08-26T03:37:38.928Z,29.90
2022-08-26T03:40:10.827Z,33.77
2022-08-26T03:42:44.479Z,32.70
2022-08-26T03:45:18.669Z,28.03
2022-08-26T03:47:47.209Z,36.93
2022-08-26T03:50:24.280Z,42.33
2022-08-26T03:52:54.813Z,30.40
2022-08-26T03:55:24.986Z,28.27
2022-08-26T03:57:55.004Z,39.90
2022-08-26T04:00:23.423Z,32.47
2022-08-26T04:02:53.202Z,30.53
2022-08-26T04:05:23.502Z,34.00
2022-08-26T04:07:51.702Z,36.13
2022-08-26T04:10:26.394Z,48.83
2022-08-26T04:12:59.755Z,50.83
2022-08-26T04:15:28.547Z,50.33
2022-08-26T04:17:57.574Z,48.63
2022-08-26T04:20:26.201Z,34.33
2022-08-26T04:22:54.827Z,44.20
2022-08-26T04:25:24.174Z,31.40
2022-08-26T04:27:52.544Z,36.43
2022-08-26T04:30:22.267Z,34.27
2022-08-26T04:32:50.243Z,31.33
2022-08-26T04:35:18.576Z,32.10
2022-08-26T04:37:50.920Z,36.23
2022-08-26T04:40:19.039Z,40.60
2022-08-26T04:42:47.169Z,32.20
2022-08-26T04:45:16.901Z,33.03
2022-08-26T04:47:46.917Z,31.40
2022-08-26T04:50:15.297Z,28.27
2022-08-26T04:52:46.567Z,26.13
2022-08-26T04:55:14.971Z,34.47
2022-08-26T04:57:43.856Z,32.00
2022-08-26T05:00:13.308Z,23.03
2022-08-26T05:02:41.976Z,27.80
2022-08-26T05:05:12.274Z,22.80
2022-08-26T05:07:40.596Z,29.43
2022-08-26T05:10:10.088Z,31.97
2022-08-26T05:12:39.310Z,37.30
2022-08-26T05:15:10.349Z,29.63
2022-08-26T05:17:38.303Z,23.50
2022-08-26T05:20:07.391Z,24.90
2022-08-26T05:22:36.658Z,28.13
2022-08-26T05:25:05.842Z,22.23
2022-08-26T05:27:33.780Z,18.83
2022-08-26T05:30:02.511Z,21.57
2022-08-26T05:32:32.402Z,23.80
2022-08-26T05:35:00.281Z,19.87
2022-08-26T05:37:29.172Z,24.30
2022-08-26T05:39:58.732Z,26.63
2022-08-26T05:42:26.698Z,22.23
2022-08-26T05:44:56.351Z,18.50
2022-08-26T05:47:24.745Z,21.40
2022-08-26T05:49:55.005Z,31.80
2022-08-26T05:52:24.533Z,33.83
2022-08-26T05:54:54.303Z,33.10
2022-08-26T05:57:24.325Z,24.60
2022-08-26T05:59:52.721Z,21.13
2022-08-26T06:02:20.682Z,26.13
2022-08-26T06:04:49.130Z,26.57
2022-08-26T06:07:17.141Z,23.67
2022-08-26T06:09:46.991Z,18.83
2022-08-26T06:12:15.798Z,20.50
2022-08-26T06:14:49.032Z,29.83
2022-08-26T06:17:16.992Z,23.57
2022-08-26T06:19:45.763Z,19.20
2022-08-26T06:22:28.045Z,21.53
2022-08-26T06:25:14.249Z,17.83
2022-08-26T06:27:42.775Z,20.43
2022-08-26T06:30:14.210Z,19.80
2022-08-26T06:32:43.885Z,25.33
2022-08-26T06:35:12.484Z,22.30
2022-08-26T06:37:40.537Z,17.53
2022-08-26T06:40:11.583Z,20.40
2022-08-26T06:42:42.444Z,17.60
2022-08-26T06:45:20.216Z,15.50
2022-08-26T06:47:49.447Z,19.03
2022-08-26T06:50:17.620Z,18.60
2022-08-26T06:52:46.653Z,18.70
2022-08-26T06:55:14.730Z,16.97
2022-08-26T06:57:42.945Z,19.37
2022-08-26T07:00:15.713Z,12.80
2022-08-26T07:02:47.084Z,17.53
2022-08-26T07:05:15.851Z,18.53
2022-08-26T07:07:43.790Z,15.23
2022-08-26T07:10:12.412Z,16.97
2022-08-26T07:12:40.302Z,15.90
2022-08-26T07:15:10.709Z,17.43
2022-08-26T07:17:40.333Z,24.73
2022-08-26T07:20:09.924Z,17.53
2022-08-26T07:22:38.311Z,15.30
2022-08-26T07:25:09.550Z,21.53
2022-08-26T07:27:38.830Z,20.10
2022-08-26T07:30:08.888Z,17.70
2022-08-26T07:32:37.558Z,24.43
2022-08-26T07:35:08.227Z,18.90
2022-08-26T07:37:39.324Z,18.03
2022-08-26T07:40:08.860Z,18.90
2022-08-26T07:42:37.357Z,16.90
2022-08-26T07:45:06.142Z,20.00
2022-08-26T07:47:34.586Z,16.07
2022-08-26T07:50:02.477Z,18.60
2022-08-26T07:52:32.449Z,17.50
2022-08-26T07:55:04.851Z,22.20
2022-08-26T07:57:34.554Z,20.27
2022-08-26T08:00:03.392Z,17.50
2022-08-26T08:02:31.823Z,17.50
2022-08-26T08:05:00.350Z,14.70
2022-08-26T08:07:44.397Z,17.63
2022-08-26T08:10:17.696Z,18.63
2022-08-26T08:12:46.623Z,21.13
2022-08-26T08:15:17.739Z,20.20
2022-08-26T08:17:45.826Z,17.47
2022-08-26T08:20:15.938Z,21.63
2022-08-26T08:22:44.092Z,16.30
2022-08-26T08:25:14.723Z,21.20
2022-08-26T08:27:45.558Z,15.53
2022-08-26T08:30:14.441Z,16.70
2022-08-26T08:32:43.618Z,21.70
2022-08-26T08:35:13.889Z,13.63
2022-08-26T08:37:42.658Z,8.90
2022-08-26T08:40:18.291Z,13.60
2022-08-26T08:45:36.608Z,14.20
2022-08-26T08:48:08.415Z,17.00
2022-08-26T08:50:45.833Z,18.73
2022-08-26T08:53:17.811Z,11.00
2022-08-26T08:56:02.012Z,11.00
2022-08-26T08:58:44.117Z,15.97
2022-08-26T09:01:21.091Z,10.47
2022-08-26T09:03:57.098Z,10.80
2022-08-26T09:06:27.764Z,18.00
2022-08-26T09:08:57.956Z,9.20
2022-08-26T09:11:27.481Z,10.67
2022-08-26T09:13:58.196Z,10.27
2022-08-26T09:16:36.062Z,9.83
2022-08-26T09:19:18.879Z,15.57
2022-08-26T09:21:57.826Z,11.88
2022-08-26T09:24:28.313Z,12.00
2022-08-26T09:26:59.182Z,12.43
2022-08-26T09:29:34.408Z,11.50
2022-08-26T09:32:21.098Z,10.30
2022-08-26T09:35:00.122Z,8.37
2022-08-26T09:37:41.109Z,11.23
2022-08-26T09:40:18.615Z,10.67
2022-08-26T09:43:10.724Z,12.03
2022-08-26T09:45:40.542Z,8.30
2022-08-26T09:48:31.288Z,15.60
2022-08-26T09:51:03.127Z,11.30
2022-08-26T09:53:36.577Z,12.50
2022-08-26T09:56:18.321Z,16.00
2022-08-26T09:58:48.952Z,8.50
2022-08-26T10:01:26.344Z,10.10
2022-08-26T10:03:54.461Z,10.93
2022-08-26T10:06:27.184Z,12.87
2022-08-26T10:08:59.181Z,13.20
2022-08-26T10:11:35.931Z,9.47
2022-08-26T10:14:13.103Z,10.60
2022-08-26T10:16:48.479Z,15.13
2022-08-26T10:19:20.566Z,11.23
2022-08-26T10:21:56.692Z,10.37
2022-08-26T10:24:31.521Z,10.00
2022-08-26T10:27:06.043Z,8.67
2022-08-26T10:29:43.903Z,11.20
2022-08-26T10:32:18.326Z,8.97
2022-08-26T10:34:46.561Z,18.37
2022-08-26T10:37:19.921Z,16.03
2022-08-26T10:39:58.509Z,7.90
2022-08-26T10:42:35.699Z,12.13
2022-08-26T10:45:15.080Z,9.57
2022-08-26T10:47:50.006Z,8.67
2022-08-26T10:50:19.428Z,12.97
2022-08-26T10:52:58.899Z,9.93
2022-08-26T10:55:37.592Z,11.47
2022-08-26T10:58:26.220Z,8.00
2022-08-26T11:01:22.849Z,11.13
2022-08-26T11:03:59.222Z,7.80
2022-08-26T11:06:29.284Z,7.70
2022-08-26T11:08:59.568Z,11.27
2022-08-26T11:11:50.830Z,13.03
2022-08-26T11:14:58.635Z,16.80
2022-08-26T11:18:07.154Z,14.77
2022-08-26T11:20:41.886Z,13.03
2022-08-26T11:23:40.422Z,14.43
2022-08-26T11:26:32.804Z,11.70
2022-08-26T11:29:04.561Z,11.17
2022-08-26T11:31:55.747Z,14.30
2022-08-26T11:34:56.386Z,16.30
2022-08-26T11:37:34.729Z,9.90
2022-08-26T11:40:07.723Z,17.03
2022-08-26T11:42:41.629Z,20.10
2022-08-26T11:45:19.812Z,17.90
2022-08-26T11:47:49.432Z,23.20
2022-08-26T11:50:23.275Z,25.87
2022-08-26T11:52:59.513Z,24.43
2022-08-26T11:55:27.491Z,12.10
2022-08-26T11:57:58.163Z,14.73
2022-08-26T12:00:33.746Z,16.10
2022-08-26T12:03:07.826Z,25.43
2022-08-26T12:05:43.731Z,18.30
2022-08-26T12:08:16.684Z,18.07
2022-08-26T12:10:44.723Z,23.77
2022-08-26T12:13:22.687Z,15.83
2022-08-26T12:15:55.928Z,15.27
2022-08-26T12:18:29.547Z,24.07
2022-08-26T12:21:02.677Z,15.03
2022-08-26T12:23:43.266Z,10.70
2022-08-26T12:26:19.906Z,13.03
2022-08-26T12:28:50.763Z,13.80
2022-08-26T12:31:37.949Z,11.60
2022-08-26T12:34:17.673Z,12.27
2022-08-26T12:36:50.433Z,16.03
2022-08-26T12:39:27.854Z,15.23
2022-08-26T12:41:57.798Z,17.77
2022-08-26T12:44:53.965Z,13.10
2022-08-26T12:47:39.015Z,10.80
2022-08-26T12:50:17.813Z,11.83
2022-08-26T12:52:57.360Z,12.20
2022-08-26T12:55:29.347Z,11.37
2022-08-26T12:58:11.703Z,15.87
2022-08-26T13:00:41.778Z,8.80
2022-08-26T13:03:31.741Z,14.20
2022-08-26T13:06:25.771Z,14.07
2022-08-26T13:08:57.784Z,8.17
2022-08-26T13:11:27.756Z,10.60
2022-08-26T13:13:59.155Z,15.90
2022-08-26T13:16:27.532Z,13.07
2022-08-26T13:18:57.633Z,19.13
2022-08-26T13:21:28.431Z,13.93
2022-08-26T13:24:06.166Z,12.77
2022-08-26T13:26:35.133Z,14.07
2022-08-26T13:29:05.369Z,21.60
2022-08-26T13:31:37.478Z,16.03
2022-08-26T13:34:05.580Z,12.93
2022-08-26T13:36:33.866Z,18.47
2022-08-26T13:39:03.219Z,17.57
2022-08-26T13:41:32.275Z,8.87
2022-08-26T13:44:00.232Z,13.23
2022-08-26T13:46:29.105Z,17.70
2022-08-26T13:48:57.223Z,20.77
2022-08-26T13:51:26.151Z,12.73
2022-08-26T13:53:54.925Z,14.50
2022-08-26T13:56:27.425Z,13.43
2022-08-26T13:58:55.271Z,10.57
2022-08-26T14:01:23.992Z,13.97
2022-08-26T14:03:52.008Z,14.37
2022-08-26T14:06:20.655Z,16.70
2022-08-26T14:08:49.480Z,11.03
2022-08-26T14:11:17.911Z,13.27
2022-08-26T14:13:47.269Z,24.07
2022-08-26T14:16:22.801Z,14.57
2022-08-26T14:18:51.232Z,13.23
2022-08-26T14:21:21.209Z,12.10
2022-08-26T14:23:49.216Z,11.00
2022-08-26T14:26:28.981Z,11.73
2022-08-26T14:28:59.764Z,11.97
2022-08-26T14:31:29.628Z,14.10
2022-08-26T14:33:59.202Z,9.17
2022-08-26T14:36:32.495Z,8.93
2022-08-26T14:39:04.123Z,10.17
2022-08-26T14:41:33.603Z,12.80
2022-08-26T14:44:05.409Z,9.83
2022-08-26T14:46:39.972Z,10.67
2022-08-26T14:49:10.746Z,13.83
2022-08-26T14:51:39.541Z,19.43
2022-08-26T14:54:13.529Z,16.97
2022-08-26T14:56:46.386Z,8.27
2022-08-26T14:59:19.126Z,13.30
2022-08-26T15:01:48.444Z,16.13
2022-08-26T15:04:17.037Z,12.80
2022-08-26T15:06:45.396Z,20.90
2022-08-26T15:09:13.617Z,18.00
2022-08-26T15:11:42.018Z,20.43
2022-08-26T15:14:19.100Z,19.37
2022-08-26T15:16:49.880Z,15.87
2022-08-26T15:19:18.228Z,16.17
2022-08-26T15:21:47.659Z,11.57
2022-08-26T15:24:18.184Z,16.00
2022-08-26T15:26:47.440Z,13.03
2022-08-26T15:29:15.889Z,13.10
2022-08-26T15:31:44.480Z,11.70
2022-08-26T15:34:16.971Z,12.90
2022-08-26T15:36:47.265Z,9.63
2022-08-26T15:39:17.167Z,11.40
2022-08-26T15:41:45.544Z,13.17
2022-08-26T15:44:16.528Z,14.30
2022-08-26T15:46:45.530Z,19.33
2022-08-26T15:49:17.518Z,13.23
2022-08-26T15:51:48.273Z,8.97
2022-08-26T15:54:18.116Z,21.60
2022-08-26T15:56:48.479Z,11.80
2022-08-26T15:59:17.199Z,13.60
2022-08-26T16:01:45.798Z,10.80
2022-08-26T16:04:15.156Z,13.83
2022-08-26T16:06:43.686Z,12.53
2022-08-26T16:09:11.964Z,11.73
2022-08-26T16:11:40.375Z,12.77
2022-08-26T16:14:08.360Z,14.37
2022-08-26T16:16:39.609Z,14.47
2022-08-26T16:19:07.867Z,10.13
2022-08-26T16:21:37.450Z,10.33
2022-08-26T16:24:06.142Z,9.10
2022-08-26T16:26:37.586Z,15.93
2022-08-26T16:29:08.681Z,11.33
2022-08-26T16:31:38.404Z,10.03
2022-08-26T16:34:06.624Z,20.03
2022-08-26T16:36:35.744Z,13.17
2022-08-26T16:39:07.193Z,13.73
2022-08-26T16:41:35.740Z,11.13
2022-08-26T16:44:04.879Z,12.27
2022-08-26T16:46:34.114Z,10.57
2022-08-26T16:49:04.563Z,7.67
2022-08-26T16:51:37.725Z,10.97
2022-08-26T16:54:08.885Z,6.70
2022-08-26T16:56:37.622Z,10.00
2022-08-26T16:59:08.051Z,5.67
2022-08-26T17:01:36.222Z,6.43
2022-08-26T17:04:04.780Z,10.77
2022-08-26T17:06:33.181Z,12.67
2022-08-26T17:09:01.666Z,15.83
2022-08-26T17:11:31.340Z,12.10
2022-08-26T17:13:59.681Z,10.40
2022-08-26T17:16:27.735Z,16.10
2022-08-26T17:18:57.255Z,6.10
2022-08-26T17:21:26.011Z,11.00
2022-08-26T17:23:54.410Z,10.20
2022-08-26T17:26:22.455Z,7.27
2022-08-26T17:28:52.531Z,12.00
2022-08-26T17:31:21.475Z,13.20
2022-08-26T17:33:53.524Z,12.80
2022-08-26T17:36:27.879Z,14.03
2022-08-26T17:38:57.916Z,12.53
2022-08-26T17:41:26.971Z,17.57
2022-08-26T17:43:56.831Z,15.47
2022-08-26T17:46:25.208Z,20.50
2022-08-26T17:48:53.657Z,13.27
2022-08-26T17:51:23.446Z,16.93
2022-08-26T17:53:52.235Z,20.30
2022-08-26T17:56:23.922Z,26.17
2022-08-26T17:58:53.098Z,16.97
2022-08-26T18:01:23.478Z,27.97
2022-08-26T18:03:51.588Z,15.73
2022-08-26T18:06:21.524Z,15.60
2022-08-26T18:08:51.697Z,17.50
2022-08-26T18:11:23.049Z,16.90
2022-08-26T18:13:51.672Z,19.27
2022-08-26T18:16:19.809Z,20.20
2022-08-26T18:18:53.770Z,17.20
2022-08-26T18:21:24.325Z,19.00
2022-08-26T18:23:53.347Z,12.63
2022-08-26T18:26:23.884Z,15.00
2022-08-26T18:28:52.289Z,25.80
2022-08-26T18:31:20.662Z,16.57
2022-08-26T18:33:50.464Z,14.50
2022-08-26T18:36:20.256Z,10.97
2022-08-26T18:38:50.636Z,14.23
2022-08-26T18:41:20.713Z,16.20
2022-08-26T18:43:50.756Z,16.30
2022-08-26T18:46:20.400Z,15.17
2022-08-26T18:48:51.237Z,23.70
2022-08-26T18:51:21.457Z,13.20
2022-08-26T18:53:49.981Z,15.67
2022-08-26T18:56:18.704Z,14.53
2022-08-26T18:58:47.913Z,13.17
2022-08-26T19:01:16.697Z,12.73
2022-08-26T19:03:45.279Z,13.13
2022-08-26T19:06:16.782Z,14.63
2022-08-26T19:08:45.143Z,20.03
2022-08-26T19:11:31.154Z,17.40
2022-08-26T19:14:00.027Z,16.63
2022-08-26T19:16:28.978Z,18.97
2022-08-26T19:18:58.793Z,14.13
2022-08-26T19:21:29.371Z,12.57
2022-08-26T19:23:58.655Z,21.40
2022-08-26T19:26:27.632Z,19.83
2022-08-26T19:28:56.016Z,15.60
2022-08-26T19:31:24.155Z,14.87
2022-08-26T19:33:52.540Z,16.53
2022-08-26T19:36:22.794Z,18.97
2022-08-26T19:38:52.735Z,18.60
2022-08-26T19:41:26.571Z,16.80
2022-08-26T19:44:09.310Z,18.03
2022-08-26T19:49:07.673Z,17.87
2022-08-26T19:51:37.673Z,20.13
2022-08-26T19:54:07.613Z,15.97
2022-08-26T19:56:35.611Z,21.43
2022-08-26T19:59:03.949Z,19.90
2022-08-26T20:01:32.049Z,15.53
2022-08-26T20:04:00.467Z,17.07
2022-08-26T20:06:28.550Z,19.77
2022-08-26T20:08:56.877Z,17.73
2022-08-26T20:11:26.525Z,18.70
2022-08-26T20:13:55.695Z,22.70
2022-08-26T20:16:23.869Z,16.53
2022-08-26T20:19:09.580Z,24.57
2022-08-26T20:21:39.839Z,21.73
2022-08-26T20:24:10.480Z,25.67
2022-08-26T20:26:42.873Z,18.03
2022-08-26T20:29:12.905Z,22.33
2022-08-26T20:31:49.902Z,19.30
2022-08-26T20:34:20.258Z,22.43
2022-08-26T20:36:49.479Z,20.53
2022-08-26T20:39:19.798Z,18.40
2022-08-26T20:41:48.199Z,20.53
2022-08-26T20:44:16.807Z,19.20
2022-08-26T20:46:45.325Z,19.80
2022-08-26T20:49:15.251Z,17.30
2022-08-26T20:51:43.883Z,20.83
2022-08-26T20:54:12.417Z,20.67
2022-08-26T20:56:40.845Z,20.73
2022-08-26T20:59:09.687Z,25.03
2022-08-26T21:01:42.253Z,23.00
2022-08-26T21:04:14.260Z,22.80
2022-08-26T21:06:52.641Z,24.10
2022-08-26T21:09:22.233Z,22.47
2022-08-26T21:11:51.303Z,21.97
2022-08-26T21:14:20.909Z,25.73
2022-08-26T21:16:48.922Z,35.73
2022-08-26T21:19:19.170Z,23.40
2022-08-26T21:21:49.314Z,20.80
2022-08-26T21:24:17.738Z,26.47
2022-08-26T21:26:46.056Z,21.87
2022-08-26T21:29:14.916Z,23.17
2022-08-26T21:31:46.531Z,23.00
2022-08-26T21:34:16.123Z,23.20
2022-08-26T21:36:44.187Z,20.07
2022-08-26T21:39:13.855Z,27.63
2022-08-26T21:41:42.980Z,23.83
2022-08-26T21:44:11.995Z,20.80
2022-08-26T21:46:40.204Z,20.53
2022-08-26T21:49:11.124Z,19.20
2022-08-26T21:51:41.250Z,16.90
2022-08-26T21:54:11.481Z,23.63
2022-08-26T21:56:47.115Z,20.97
2022-08-26T21:59:16.859Z,20.97
2022-08-26T22:01:44.814Z,16.30
2022-08-26T22:04:12.841Z,20.27
2022-08-26T22:06:43.410Z,19.27
2022-08-26T22:09:12.127Z,19.60
2022-08-26T22:11:41.840Z,18.50
2022-08-26T22:14:11.410Z,16.27
2022-08-26T22:16:39.425Z,14.40
2022-08-26T22:19:07.841Z,14.83
2022-08-26T22:21:40.671Z,14.50
2022-08-26T22:24:12.479Z,15.97
2022-08-26T22:26:41.880Z,16.47
2022-08-26T22:29:10.271Z,13.07
2022-08-26T22:31:38.896Z,13.00
2022-08-26T22:34:09.897Z,11.50
2022-08-26T22:36:43.320Z,13.93
2022-08-26T22:39:13.368Z,16.00
2022-08-26T22:41:43.635Z,18.43
2022-08-26T22:44:13.120Z,19.63
2022-08-26T22:46:42.769Z,18.53
2022-08-26T22:49:12.858Z,17.10
2022-08-26T22:51:40.761Z,18.07
2022-08-26T22:54:08.745Z,26.80
2022-08-26T22:56:37.201Z,18.07
2022-08-26T22:59:08.078Z,19.07
2022-08-26T23:01:37.559Z,19.97
2022-08-26T23:04:07.720Z,24.93
2022-08-26T23:06:37.587Z,19.13
2022-08-26T23:09:07.455Z,26.40
2022-08-26T23:11:36.266Z,21.37
2022-08-26T23:14:06.286Z,26.10
2022-08-26T23:16:39.171Z,21.10
2022-08-26T23:19:08.364Z,27.00
2022-08-26T23:21:36.969Z,24.13
2022-08-26T23:24:05.731Z,22.47
2022-08-26T23:26:34.068Z,25.73
2022-08-26T23:29:02.101Z,23.13
2022-08-26T23:31:30.199Z,27.47
2022-08-26T23:34:17.575Z,24.60
2022-08-26T23:36:46.265Z,32.17
2022-08-26T23:39:15.567Z,28.53
2022-08-26T23:41:43.845Z,25.60
2022-08-26T23:44:12.762Z,31.03
2022-08-26T23:46:40.911Z,30.33
2022-08-26T23:49:10.804Z,26.23
2022-08-26T23:51:57.124Z,27.80
2022-08-26T23:54:25.280Z,27.83
2022-08-26T23:56:53.389Z,29.87
2022-08-26T23:59:21.850Z,29.63
